Beechwood, Michigan
Current Conditions -  °F | °C
As of 9:55 AM on Sunday 23 Nov 2014 (Local Time) from KLNL Reporting Station
Moderate Fog Moderate Fog  
Wind Chill: 40°   Ceiling: 200
Heat Index: 44°   Visibility: 0.25mi
Dew Point: 44°   Wind: 7mph
Humidity: 100%   Direction: 190°S
Pressure: 29.52"   Gusts: NA
Location:  46.2163°N, 88.7676°W
Report Text: KLNL 231555Z AUTO 19006KT 1/4SM FG OVC002 07/07 A2952 RMK AO2 T00650065
Loading
Personal Weather Stations






























Interactive Weather Map New forecast layout! Learn more

10-Day Weather Forecast

Advertisements
Track Severe Weather on mobile